createdAt,value
2016-10-21T00:00:20.432Z,0
2016-10-21T00:00:52.765Z,0
2016-10-21T00:01:25.088Z,0
2016-10-21T00:01:57.447Z,0
2016-10-21T00:02:29.768Z,0
2016-10-21T00:03:02.096Z,0
2016-10-21T00:03:34.438Z,0
2016-10-21T00:04:06.737Z,0
2016-10-21T00:04:39.059Z,0
2016-10-21T00:05:11.389Z,0
2016-10-21T00:05:43.693Z,0
2016-10-21T00:06:16.021Z,0
2016-10-21T00:06:48.444Z,0
2016-10-21T00:07:20.759Z,0
2016-10-21T00:07:53.090Z,0
2016-10-21T00:08:25.402Z,0
2016-10-21T00:08:57.730Z,0
2016-10-21T00:09:30.063Z,0
2016-10-21T00:10:02.363Z,0
2016-10-21T00:10:34.717Z,0
2016-10-21T00:11:07.027Z,0
2016-10-21T00:11:39.385Z,0
2016-10-21T00:12:11.710Z,0
2016-10-21T00:12:44.078Z,0
2016-10-21T00:13:16.404Z,0
2016-10-21T00:13:48.741Z,0
2016-10-21T00:14:21.078Z,0
2016-10-21T00:14:53.411Z,0
2016-10-21T00:15:25.757Z,0
2016-10-21T00:15:58.112Z,0
2016-10-21T00:16:30.426Z,0
2016-10-21T00:17:02.738Z,0
2016-10-21T00:17:35.063Z,0
2016-10-21T00:18:07.425Z,0
2016-10-21T00:18:39.750Z,0
2016-10-21T00:19:12.099Z,0
2016-10-21T00:19:44.409Z,0
2016-10-21T00:20:16.740Z,0
2016-10-21T00:20:49.077Z,0
2016-10-21T00:21:21.424Z,0
2016-10-21T00:21:53.757Z,0
2016-10-21T00:22:26.073Z,0
2016-10-21T00:22:58.387Z,0
2016-10-21T00:23:30.706Z,0
2016-10-21T00:24:03.026Z,0
2016-10-21T00:24:35.344Z,0
2016-10-21T00:25:07.656Z,0
2016-10-21T00:25:40.048Z,0
2016-10-21T00:26:12.368Z,0
2016-10-21T00:26:44.686Z,0
2016-10-21T00:27:17.041Z,0
2016-10-21T00:27:49.384Z,0
2016-10-21T00:28:21.716Z,0
2016-10-21T00:28:54.037Z,0
2016-10-21T00:29:26.389Z,0
2016-10-21T00:29:58.754Z,0
2016-10-21T00:30:31.100Z,0
2016-10-21T00:31:03.437Z,0
2016-10-21T00:31:35.757Z,0
2016-10-21T00:32:08.082Z,0
2016-10-21T00:32:40.394Z,0
2016-10-21T00:33:12.720Z,0
2016-10-21T00:33:45.056Z,0
2016-10-21T00:34:17.377Z,0
2016-10-21T00:34:49.684Z,0
2016-10-21T00:35:22.017Z,0
2016-10-21T00:35:54.360Z,0
2016-10-21T00:36:26.715Z,0
2016-10-21T00:36:59.087Z,0
2016-10-21T00:37:31.400Z,0
2016-10-21T00:38:03.728Z,0
2016-10-21T00:38:36.040Z,0
2016-10-21T00:39:08.362Z,0
2016-10-21T00:39:40.690Z,0
2016-10-21T00:40:13.027Z,0
2016-10-21T00:40:45.344Z,0
2016-10-21T00:41:17.684Z,0
2016-10-21T00:41:50.014Z,0
2016-10-21T00:42:22.338Z,0
2016-10-21T00:42:54.654Z,0
2016-10-21T00:43:26.999Z,0
2016-10-21T00:43:59.346Z,0
2016-10-21T00:44:31.696Z,0
2016-10-21T00:45:04.015Z,0
2016-10-21T00:45:36.337Z,0
2016-10-21T00:46:08.671Z,0
2016-10-21T00:46:41.026Z,0
2016-10-21T00:47:13.368Z,0
2016-10-21T00:47:45.673Z,0
2016-10-21T00:48:18.024Z,0
2016-10-21T00:48:50.343Z,0
2016-10-21T00:49:22.684Z,0
2016-10-21T00:49:55.027Z,0
2016-10-21T00:50:27.364Z,0
2016-10-21T00:50:59.714Z,0
2016-10-21T00:51:32.028Z,0
2016-10-21T00:52:04.377Z,0
2016-10-21T00:52:36.727Z,0
2016-10-21T00:53:09.061Z,0
2016-10-21T00:53:41.388Z,0
2016-10-21T00:54:13.749Z,0
2016-10-21T00:54:46.075Z,0
2016-10-21T00:55:18.390Z,0
2016-10-21T00:55:50.728Z,0
2016-10-21T00:56:23.049Z,0
2016-10-21T00:56:55.370Z,0
2016-10-21T00:57:27.719Z,0
2016-10-21T00:58:00.064Z,0
2016-10-21T00:58:32.403Z,0
2016-10-21T00:59:04.768Z,0
2016-10-21T00:59:37.084Z,0
2016-10-21T01:00:09.409Z,0
2016-10-21T01:00:41.734Z,0
2016-10-21T01:01:14.057Z,0
2016-10-21T01:01:46.367Z,0
2016-10-21T01:02:18.694Z,0
2016-10-21T01:02:51.019Z,0
2016-10-21T01:03:23.343Z,0
2016-10-21T01:03:55.692Z,0
2016-10-21T01:04:28.022Z,0
2016-10-21T01:05:00.352Z,0
2016-10-21T01:05:32.696Z,0
2016-10-21T01:06:05.812Z,0
2016-10-21T01:06:38.179Z,0
2016-10-21T01:07:10.496Z,0
2016-10-21T01:07:42.809Z,0
2016-10-21T01:08:15.129Z,0
2016-10-21T01:08:47.442Z,0
2016-10-21T01:09:19.763Z,0
2016-10-21T01:09:52.097Z,0
2016-10-21T01:10:24.428Z,0
2016-10-21T01:10:56.756Z,0
2016-10-21T01:11:29.085Z,0
2016-10-21T01:12:01.403Z,0
2016-10-21T01:12:33.718Z,0
2016-10-21T01:13:06.040Z,0
2016-10-21T01:13:38.362Z,0
2016-10-21T01:14:10.695Z,0
2016-10-21T01:14:43.012Z,0
2016-10-21T01:15:15.330Z,0
2016-10-21T01:15:47.657Z,0
2016-10-21T01:16:19.989Z,0
2016-10-21T01:16:52.332Z,0
2016-10-21T01:17:24.649Z,0
2016-10-21T01:17:56.984Z,0
2016-10-21T01:18:29.309Z,0
2016-10-21T01:19:01.649Z,0
2016-10-21T01:19:33.982Z,0
2016-10-21T01:20:06.295Z,0
2016-10-21T01:20:38.641Z,0
2016-10-21T01:21:10.983Z,0
2016-10-21T01:21:43.328Z,0
2016-10-21T01:22:15.671Z,0
2016-10-21T01:22:48.030Z,0
2016-10-21T01:23:20.353Z,0
2016-10-21T01:23:52.708Z,0
2016-10-21T01:24:25.048Z,0
2016-10-21T01:24:57.372Z,0
2016-10-21T01:25:29.691Z,0
2016-10-21T01:26:02.035Z,0
2016-10-21T01:26:34.385Z,0
2016-10-21T01:27:06.703Z,0
2016-10-21T01:27:39.017Z,0
2016-10-21T01:28:11.358Z,0
2016-10-21T01:28:43.676Z,0
2016-10-21T01:29:16.002Z,0
2016-10-21T01:29:48.320Z,0
2016-10-21T01:30:20.625Z,0
2016-10-21T01:30:52.964Z,0
2016-10-21T01:31:25.284Z,0
2016-10-21T01:31:57.609Z,0
2016-10-21T01:32:29.929Z,0
2016-10-21T01:33:02.373Z,0
2016-10-21T01:33:34.762Z,0
2016-10-21T01:34:07.102Z,0
2016-10-21T01:34:39.430Z,0
2016-10-21T01:35:11.787Z,0
2016-10-21T01:35:44.139Z,0
2016-10-21T01:36:16.483Z,0
2016-10-21T01:36:48.824Z,0
2016-10-21T01:37:21.142Z,0
2016-10-21T01:37:53.471Z,0
2016-10-21T01:38:25.795Z,0
2016-10-21T01:38:58.103Z,0
2016-10-21T01:39:30.445Z,0
2016-10-21T01:40:02.762Z,0
2016-10-21T01:40:35.078Z,0
2016-10-21T01:41:07.409Z,0
2016-10-21T01:41:39.734Z,0
2016-10-21T01:42:12.082Z,0
2016-10-21T01:42:44.406Z,0
2016-10-21T01:43:16.714Z,0
2016-10-21T01:43:49.034Z,0
2016-10-21T01:44:21.362Z,0
2016-10-21T01:44:53.699Z,0
2016-10-21T01:45:26.016Z,0
2016-10-21T01:45:58.318Z,0
2016-10-21T01:46:30.647Z,0
2016-10-21T01:47:02.969Z,0
2016-10-21T01:47:35.293Z,0
2016-10-21T01:48:07.653Z,0
2016-10-21T01:48:39.980Z,0
2016-10-21T01:49:12.339Z,0
2016-10-21T01:49:44.667Z,0
2016-10-21T01:50:16.984Z,0
2016-10-21T01:50:49.307Z,0
2016-10-21T01:51:21.616Z,0
2016-10-21T01:51:53.936Z,0
2016-10-21T01:52:26.252Z,0
2016-10-21T01:52:58.578Z,0
2016-10-21T01:53:30.909Z,0
2016-10-21T01:54:03.207Z,0
2016-10-21T01:54:35.522Z,0
2016-10-21T01:55:07.848Z,0
2016-10-21T01:55:40.220Z,0
2016-10-21T01:56:12.551Z,0
2016-10-21T01:56:44.891Z,0
2016-10-21T01:57:17.210Z,0
2016-10-21T01:57:49.524Z,0
2016-10-21T01:58:21.856Z,0
2016-10-21T01:58:54.191Z,0
2016-10-21T01:59:26.513Z,0
2016-10-21T01:59:58.843Z,0
2016-10-21T02:00:31.164Z,0
2016-10-21T02:01:03.482Z,0
2016-10-21T02:01:35.802Z,0
2016-10-21T02:02:08.135Z,0
2016-10-21T02:02:40.465Z,0
2016-10-21T02:03:12.799Z,0
2016-10-21T02:03:45.141Z,0
2016-10-21T02:04:17.516Z,0
2016-10-21T02:04:49.834Z,0
2016-10-21T02:05:22.158Z,0
2016-10-21T02:05:54.484Z,0
2016-10-21T02:06:26.825Z,0
2016-10-21T02:06:59.148Z,0
2016-10-21T02:07:31.459Z,0
2016-10-21T02:08:03.767Z,0
2016-10-21T02:08:36.100Z,0
2016-10-21T02:09:08.431Z,0
2016-10-21T02:09:40.779Z,0
2016-10-21T02:10:13.118Z,0
2016-10-21T02:10:45.449Z,0
2016-10-21T02:11:17.783Z,0
2016-10-21T02:11:50.119Z,0
2016-10-21T02:12:22.454Z,0
2016-10-21T02:12:54.768Z,0
2016-10-21T02:13:27.140Z,0
2016-10-21T02:13:59.461Z,0
2016-10-21T02:14:31.783Z,0
2016-10-21T02:15:04.127Z,0
2016-10-21T02:15:36.458Z,0
2016-10-21T02:16:08.761Z,0
2016-10-21T02:16:41.074Z,0
2016-10-21T02:17:13.402Z,0
2016-10-21T02:17:45.750Z,0
2016-10-21T02:18:18.076Z,0
2016-10-21T02:18:50.401Z,0
2016-10-21T02:19:22.746Z,0
2016-10-21T02:19:55.108Z,0
2016-10-21T02:20:27.443Z,0
2016-10-21T02:20:59.782Z,0
2016-10-21T02:21:32.115Z,0
2016-10-21T02:22:04.438Z,0
2016-10-21T02:22:36.798Z,0
2016-10-21T02:23:09.157Z,0
2016-10-21T02:23:41.491Z,0
2016-10-21T02:24:13.818Z,0
2016-10-21T02:24:46.135Z,0
2016-10-21T02:25:18.451Z,0
2016-10-21T02:25:50.787Z,0
2016-10-21T02:26:23.094Z,0
2016-10-21T02:26:55.420Z,0
2016-10-21T02:27:27.741Z,0
2016-10-21T02:28:00.054Z,0
2016-10-21T02:28:32.415Z,0
2016-10-21T02:29:04.740Z,0
2016-10-21T02:29:37.047Z,0
2016-10-21T02:30:09.406Z,0
2016-10-21T02:30:41.746Z,0
2016-10-21T02:31:14.109Z,0
2016-10-21T02:31:46.430Z,0
2016-10-21T02:32:18.755Z,0
2016-10-21T02:32:51.093Z,0
2016-10-21T02:33:23.416Z,0
2016-10-21T02:33:55.783Z,0
2016-10-21T02:34:28.125Z,0
2016-10-21T02:35:00.450Z,0
2016-10-21T02:35:32.777Z,0
2016-10-21T02:36:05.092Z,0
2016-10-21T02:36:37.419Z,0
2016-10-21T02:37:09.745Z,0
2016-10-21T02:37:42.059Z,0
2016-10-21T02:38:14.382Z,0
2016-10-21T02:38:46.707Z,0
2016-10-21T02:39:19.029Z,0
2016-10-21T02:39:51.350Z,0
2016-10-21T02:40:23.683Z,0
2016-10-21T02:40:55.997Z,0
2016-10-21T02:41:28.318Z,0
2016-10-21T02:42:00.637Z,0
2016-10-21T02:42:32.996Z,0
2016-10-21T02:43:05.367Z,0
2016-10-21T02:43:37.706Z,0
2016-10-21T02:44:10.041Z,0
2016-10-21T02:44:42.354Z,0
2016-10-21T02:45:14.694Z,0
2016-10-21T02:45:47.036Z,0
2016-10-21T02:46:19.358Z,0
2016-10-21T02:46:51.703Z,0
2016-10-21T02:47:24.095Z,0
2016-10-21T02:47:56.425Z,0
2016-10-21T02:48:28.744Z,0
2016-10-21T02:49:01.075Z,0
2016-10-21T02:49:33.433Z,0
2016-10-21T02:50:05.752Z,0
2016-10-21T02:50:38.065Z,0
2016-10-21T02:51:10.400Z,0
2016-10-21T02:51:42.728Z,0
2016-10-21T02:52:15.040Z,0
2016-10-21T02:52:47.372Z,0
2016-10-21T02:53:19.699Z,0
2016-10-21T02:53:52.024Z,0
2016-10-21T02:54:24.339Z,0
2016-10-21T02:54:56.659Z,0
2016-10-21T02:55:28.992Z,0
2016-10-21T02:56:01.306Z,0
2016-10-21T02:56:33.631Z,0
2016-10-21T02:57:05.993Z,0
2016-10-21T02:57:38.312Z,0
2016-10-21T02:58:10.621Z,0
2016-10-21T02:58:42.934Z,0
2016-10-21T02:59:15.260Z,0
2016-10-21T02:59:47.578Z,0
2016-10-21T03:00:19.900Z,0
2016-10-21T03:00:52.220Z,0
2016-10-21T03:01:24.579Z,0
2016-10-21T03:01:56.949Z,0
2016-10-21T03:02:29.256Z,0
2016-10-21T03:03:01.594Z,0
2016-10-21T03:03:33.922Z,0
2016-10-21T03:04:06.226Z,0
2016-10-21T03:04:38.541Z,0
2016-10-21T03:05:10.857Z,0
2016-10-21T03:05:43.190Z,0
2016-10-21T03:06:15.511Z,0
2016-10-21T03:06:47.833Z,0
2016-10-21T03:07:20.166Z,0
2016-10-21T03:07:52.499Z,0
2016-10-21T03:08:24.813Z,0
2016-10-21T03:08:57.162Z,0
2016-10-21T03:09:29.501Z,0
2016-10-21T03:10:01.809Z,0
2016-10-21T03:10:34.152Z,0
2016-10-21T03:11:06.469Z,0
2016-10-21T03:11:38.810Z,0
2016-10-21T03:12:11.138Z,0
2016-10-21T03:12:43.460Z,0
2016-10-21T03:13:15.780Z,0
2016-10-21T03:13:48.081Z,0
2016-10-21T03:14:20.408Z,0
2016-10-21T03:14:52.725Z,0
2016-10-21T03:15:25.039Z,0
2016-10-21T03:15:57.378Z,0
2016-10-21T03:16:29.712Z,0
2016-10-21T03:17:02.033Z,0
2016-10-21T03:17:34.360Z,0
2016-10-21T03:18:06.694Z,0
2016-10-21T03:18:39.013Z,0
2016-10-21T03:19:11.342Z,0
2016-10-21T03:19:43.656Z,0
2016-10-21T03:20:15.988Z,0
2016-10-21T03:20:48.304Z,0
2016-10-21T03:21:20.640Z,0
2016-10-21T03:21:52.991Z,0
2016-10-21T03:22:25.323Z,0
2016-10-21T03:22:57.642Z,0
2016-10-21T03:23:29.983Z,0
2016-10-21T03:24:02.326Z,0
2016-10-21T03:24:34.649Z,0
2016-10-21T03:25:06.980Z,0
2016-10-21T03:25:39.296Z,0
2016-10-21T03:26:11.602Z,0
2016-10-21T03:26:43.895Z,0
2016-10-21T03:27:16.217Z,0
2016-10-21T03:27:48.561Z,0
2016-10-21T03:28:20.947Z,0
2016-10-21T03:28:54.459Z,0
2016-10-21T03:29:26.795Z,0
2016-10-21T03:29:59.134Z,0
2016-10-21T03:30:31.466Z,0
2016-10-21T03:31:03.790Z,0
2016-10-21T03:31:36.114Z,0
2016-10-21T03:32:08.440Z,0
2016-10-21T03:32:40.768Z,0
2016-10-21T03:33:13.131Z,0
2016-10-21T03:33:45.455Z,0
2016-10-21T03:34:17.777Z,0
2016-10-21T03:34:50.151Z,0
2016-10-21T03:35:22.473Z,0
2016-10-21T03:35:54.792Z,0
2016-10-21T03:36:27.175Z,0
2016-10-21T03:36:59.495Z,0
2016-10-21T03:37:31.813Z,0
2016-10-21T03:38:04.134Z,0
2016-10-21T03:38:36.465Z,0
2016-10-21T03:39:08.779Z,0
2016-10-21T03:39:41.092Z,0
2016-10-21T03:40:13.423Z,0
2016-10-21T03:40:45.751Z,0
2016-10-21T03:41:18.072Z,0
2016-10-21T03:41:50.402Z,0
2016-10-21T03:42:22.737Z,0
2016-10-21T03:42:55.070Z,0
2016-10-21T03:43:27.396Z,0
2016-10-21T03:43:59.724Z,0
2016-10-21T03:44:32.055Z,0
2016-10-21T03:45:04.378Z,0
2016-10-21T03:45:36.679Z,0
2016-10-21T03:46:08.998Z,0
2016-10-21T03:46:41.321Z,0
2016-10-21T03:47:13.657Z,0
2016-10-21T03:47:45.970Z,0
2016-10-21T03:48:18.280Z,0
2016-10-21T03:48:50.599Z,0
2016-10-21T03:49:22.933Z,0
2016-10-21T03:49:55.249Z,0
2016-10-21T03:50:27.593Z,0
2016-10-21T03:50:59.914Z,0
2016-10-21T03:51:32.221Z,0
2016-10-21T03:52:04.534Z,0
2016-10-21T03:52:36.891Z,0
2016-10-21T03:53:09.221Z,0
2016-10-21T03:53:41.574Z,0
2016-10-21T03:54:13.926Z,0
2016-10-21T03:54:46.243Z,0
2016-10-21T03:55:18.558Z,0
2016-10-21T03:55:50.878Z,0
2016-10-21T03:56:23.208Z,0
2016-10-21T03:56:55.545Z,0
2016-10-21T03:57:27.864Z,0
2016-10-21T03:58:00.182Z,0
2016-10-21T03:58:32.507Z,0
2016-10-21T03:59:04.832Z,0
2016-10-21T03:59:37.158Z,0
2016-10-21T04:00:09.503Z,0
2016-10-21T04:00:41.866Z,0
2016-10-21T04:01:14.186Z,0
2016-10-21T04:01:46.532Z,0
2016-10-21T04:02:18.855Z,0
2016-10-21T04:02:51.198Z,0
2016-10-21T04:03:23.558Z,0
2016-10-21T04:03:55.902Z,0
2016-10-21T04:04:28.228Z,0
2016-10-21T04:05:00.537Z,0
2016-10-21T04:05:32.855Z,0
2016-10-21T04:06:05.181Z,0
2016-10-21T04:06:37.526Z,0
2016-10-21T04:07:09.849Z,0
2016-10-21T04:07:42.185Z,0
2016-10-21T04:08:14.525Z,0
2016-10-21T04:08:46.853Z,0
2016-10-21T04:09:19.146Z,0
2016-10-21T04:09:51.469Z,0
2016-10-21T04:10:23.802Z,0
2016-10-21T04:10:56.121Z,0
2016-10-21T04:11:28.441Z,0
2016-10-21T04:12:00.799Z,0
2016-10-21T04:12:33.133Z,0
2016-10-21T04:13:05.458Z,0
2016-10-21T04:13:37.781Z,0
2016-10-21T04:14:10.147Z,0
2016-10-21T04:14:42.470Z,0
2016-10-21T04:15:14.817Z,0
2016-10-21T04:15:47.135Z,0
2016-10-21T04:16:19.484Z,0
2016-10-21T04:16:51.854Z,0
2016-10-21T04:17:24.188Z,0
2016-10-21T04:17:56.520Z,0
2016-10-21T04:18:28.843Z,0
2016-10-21T04:19:01.175Z,0
2016-10-21T04:19:33.506Z,0
2016-10-21T04:20:05.866Z,0
2016-10-21T04:20:38.237Z,0
2016-10-21T04:21:10.605Z,0
2016-10-21T04:21:42.940Z,0
2016-10-21T04:22:15.264Z,0
2016-10-21T04:22:47.609Z,0
2016-10-21T04:23:19.930Z,0
2016-10-21T04:23:52.248Z,0
2016-10-21T04:24:24.581Z,0
2016-10-21T04:24:56.901Z,0
2016-10-21T04:25:29.221Z,0
2016-10-21T04:26:01.558Z,0
2016-10-21T04:26:33.898Z,0
2016-10-21T04:27:06.221Z,0
2016-10-21T04:27:38.540Z,0
2016-10-21T04:28:10.876Z,0
2016-10-21T04:28:43.212Z,0
2016-10-21T04:29:15.521Z,0
2016-10-21T04:29:47.847Z,0
2016-10-21T04:30:20.181Z,0
2016-10-21T04:30:52.507Z,0
2016-10-21T04:31:24.830Z,0
2016-10-21T04:31:57.149Z,0
2016-10-21T04:32:29.455Z,0
2016-10-21T04:33:01.765Z,0
2016-10-21T04:33:34.112Z,0
2016-10-21T04:34:06.440Z,0
2016-10-21T04:34:38.749Z,0
2016-10-21T04:35:11.925Z,0
2016-10-21T04:35:44.258Z,0
2016-10-21T04:36:16.588Z,0
2016-10-21T04:36:48.914Z,0
2016-10-21T04:37:21.242Z,0
2016-10-21T04:37:53.563Z,0
2016-10-21T04:38:25.899Z,0
2016-10-21T04:38:58.227Z,0
2016-10-21T04:39:30.546Z,0
2016-10-21T04:40:02.871Z,0
2016-10-21T04:40:35.182Z,0
2016-10-21T04:41:07.518Z,0
2016-10-21T04:41:39.942Z,0
2016-10-21T04:42:12.266Z,0
2016-10-21T04:42:44.588Z,0
2016-10-21T04:43:16.905Z,0
2016-10-21T04:43:49.242Z,0
2016-10-21T04:44:21.580Z,0
2016-10-21T04:44:53.900Z,0
2016-10-21T04:45:26.217Z,0
2016-10-21T04:45:58.551Z,0
2016-10-21T04:46:30.882Z,0
2016-10-21T04:47:03.209Z,0
2016-10-21T04:47:35.532Z,0
2016-10-21T04:48:07.840Z,0
2016-10-21T04:48:40.191Z,0
2016-10-21T04:49:12.577Z,0
2016-10-21T04:49:44.880Z,0
2016-10-21T04:50:17.202Z,0
2016-10-21T04:50:49.527Z,0
2016-10-21T04:51:21.862Z,0
2016-10-21T04:51:54.209Z,0
2016-10-21T04:52:26.567Z,0
2016-10-21T04:52:58.897Z,0
2016-10-21T04:53:31.208Z,0
2016-10-21T04:54:03.509Z,0
2016-10-21T04:54:35.827Z,0
2016-10-21T04:55:08.155Z,0
2016-10-21T04:55:40.539Z,0
2016-10-21T04:56:12.864Z,0
2016-10-21T04:56:45.182Z,0
2016-10-21T04:57:17.522Z,0
2016-10-21T04:57:49.836Z,0
2016-10-21T04:58:22.167Z,0
2016-10-21T04:58:54.504Z,0
2016-10-21T04:59:26.829Z,0
2016-10-21T04:59:59.148Z,0
2016-10-21T05:00:31.470Z,0
2016-10-21T05:01:03.803Z,0
2016-10-21T05:01:36.138Z,0
2016-10-21T05:02:08.505Z,0
2016-10-21T05:02:40.813Z,0
2016-10-21T05:03:13.119Z,0
2016-10-21T05:03:45.453Z,0
2016-10-21T05:04:17.770Z,0
2016-10-21T05:04:50.075Z,0
2016-10-21T05:05:22.396Z,0
2016-10-21T05:05:54.709Z,0
2016-10-21T05:06:27.999Z,0
2016-10-21T05:07:00.328Z,0
2016-10-21T05:07:32.640Z,0
2016-10-21T05:08:04.970Z,0
2016-10-21T05:08:37.294Z,0
2016-10-21T05:09:09.664Z,0
2016-10-21T05:09:41.990Z,0
2016-10-21T05:10:14.308Z,0
2016-10-21T05:10:46.644Z,0
2016-10-21T05:11:18.961Z,0
2016-10-21T05:11:51.931Z,0
2016-10-21T05:12:24.250Z,0
2016-10-21T05:12:56.589Z,0
2016-10-21T05:13:28.923Z,0
2016-10-21T05:14:01.238Z,0
2016-10-21T05:14:33.561Z,0
2016-10-21T05:15:05.883Z,0
2016-10-21T05:15:38.200Z,0
2016-10-21T05:16:10.509Z,0
2016-10-21T05:16:42.841Z,0
2016-10-21T05:17:15.162Z,0
2016-10-21T05:17:47.498Z,0
2016-10-21T05:18:19.814Z,0
2016-10-21T05:18:52.137Z,0
2016-10-21T05:19:24.456Z,0
2016-10-21T05:19:56.766Z,0
2016-10-21T05:20:29.100Z,0
2016-10-21T05:21:01.414Z,0
2016-10-21T05:21:33.731Z,0
2016-10-21T05:22:06.072Z,0
2016-10-21T05:22:38.437Z,0
2016-10-21T05:23:10.756Z,0
2016-10-21T05:23:43.059Z,0
2016-10-21T05:24:15.390Z,0
2016-10-21T05:24:47.720Z,0
2016-10-21T05:25:20.049Z,0
2016-10-21T05:25:52.379Z,0
2016-10-21T05:26:24.699Z,0
2016-10-21T05:26:57.031Z,0
2016-10-21T05:27:29.367Z,0
2016-10-21T05:28:03.520Z,0
2016-10-21T05:28:35.841Z,0
2016-10-21T05:29:08.157Z,0
2016-10-21T05:29:40.494Z,0
2016-10-21T05:30:12.826Z,0
2016-10-21T05:30:45.816Z,0
2016-10-21T05:31:18.758Z,0
2016-10-21T05:31:51.450Z,0
2016-10-21T05:32:23.768Z,0
2016-10-21T05:32:56.131Z,0
2016-10-21T05:33:28.454Z,0
2016-10-21T05:34:00.785Z,0
2016-10-21T05:34:33.125Z,0
2016-10-21T05:35:05.467Z,0
2016-10-21T05:35:37.788Z,0
2016-10-21T05:36:10.100Z,0
2016-10-21T05:36:42.442Z,0
2016-10-21T05:37:14.789Z,0
2016-10-21T05:37:47.107Z,0
2016-10-21T05:38:19.423Z,0
2016-10-21T05:38:51.751Z,0
2016-10-21T05:39:24.076Z,0
2016-10-21T05:39:56.446Z,0
2016-10-21T05:40:28.753Z,0
2016-10-21T05:41:01.075Z,0
2016-10-21T05:41:33.389Z,0
2016-10-21T05:42:05.705Z,0
2016-10-21T05:42:38.009Z,0
2016-10-21T05:43:10.329Z,0
2016-10-21T05:43:42.698Z,0
2016-10-21T05:44:15.018Z,0
2016-10-21T05:44:47.781Z,4
2016-10-21T05:45:20.309Z,4
2016-10-21T05:45:53.673Z,4
2016-10-21T05:46:26.924Z,4
2016-10-21T05:46:59.452Z,4
2016-10-21T05:47:31.983Z,0
2016-10-21T05:48:04.395Z,0
2016-10-21T05:48:36.722Z,4
2016-10-21T05:49:09.039Z,4
2016-10-21T05:49:42.422Z,4
2016-10-21T05:50:15.575Z,4
2016-10-21T05:50:48.874Z,8
2016-10-21T05:51:21.935Z,4
2016-10-21T05:51:54.709Z,4
2016-10-21T05:52:27.126Z,4
2016-10-21T05:52:59.559Z,8
2016-10-21T05:53:31.878Z,8
2016-10-21T05:54:04.209Z,8
2016-10-21T05:54:36.525Z,8
2016-10-21T05:55:08.876Z,8
2016-10-21T05:55:41.193Z,8
2016-10-21T05:56:13.586Z,8
2016-10-21T05:56:45.902Z,12
2016-10-21T05:57:18.486Z,12
2016-10-21T05:57:51.937Z,12
2016-10-21T05:58:24.279Z,12
2016-10-21T05:58:57.451Z,12
2016-10-21T05:59:29.784Z,12
2016-10-21T06:00:02.122Z,12
2016-10-21T06:00:34.448Z,12
2016-10-21T06:01:07.051Z,12
2016-10-21T06:01:39.459Z,12
2016-10-21T06:02:12.533Z,16
2016-10-21T06:02:44.908Z,16
2016-10-21T06:03:18.335Z,16
2016-10-21T06:03:52.113Z,16
2016-10-21T06:04:25.520Z,16
2016-10-21T06:05:02.306Z,16
2016-10-21T06:05:35.494Z,16
2016-10-21T06:06:08.711Z,16
2016-10-21T06:06:45.620Z,20
2016-10-21T06:07:18.997Z,20
2016-10-21T06:07:57.523Z,20
2016-10-21T06:08:31.026Z,20
2016-10-21T06:09:03.580Z,20
2016-10-21T06:09:36.047Z,20
2016-10-21T06:10:09.207Z,20
2016-10-21T06:10:41.753Z,20
2016-10-21T06:11:14.150Z,24
2016-10-21T06:11:46.462Z,20
2016-10-21T06:12:18.773Z,24
2016-10-21T06:12:51.104Z,24
2016-10-21T06:13:24.027Z,24
2016-10-21T06:13:56.347Z,24
2016-10-21T06:14:30.728Z,24
2016-10-21T06:15:06.080Z,28
2016-10-21T06:15:39.195Z,28
2016-10-21T06:16:11.805Z,32
2016-10-21T06:16:44.399Z,28
2016-10-21T06:17:17.609Z,28
2016-10-21T06:17:50.215Z,32
2016-10-21T06:18:22.827Z,36
2016-10-21T06:18:56.602Z,32
2016-10-21T06:19:29.252Z,36
2016-10-21T06:20:02.585Z,36
2016-10-21T06:20:37.142Z,36
2016-10-21T06:21:10.584Z,36
2016-10-21T06:21:46.030Z,40
2016-10-21T06:22:20.547Z,40
2016-10-21T06:22:54.893Z,40
2016-10-21T06:23:29.033Z,44
2016-10-21T06:24:07.034Z,44
2016-10-21T06:24:43.062Z,44
2016-10-21T06:25:18.530Z,44
2016-10-21T06:25:53.592Z,44
2016-10-21T06:26:29.544Z,52
2016-10-21T06:27:30.081Z,52
2016-10-21T06:28:04.964Z,52
2016-10-21T06:28:39.523Z,56
2016-10-21T06:29:13.644Z,60
2016-10-21T06:29:47.166Z,60
2016-10-21T06:30:24.049Z,64
2016-10-21T06:31:00.544Z,64
2016-10-21T06:31:34.834Z,68
2016-10-21T06:32:12.854Z,68
2016-10-21T06:32:49.036Z,76
2016-10-21T06:33:26.312Z,76
2016-10-21T06:34:00.966Z,84
2016-10-21T06:34:34.610Z,88
2016-10-21T06:35:11.533Z,88
2016-10-21T06:35:48.737Z,92
2016-10-21T06:36:22.281Z,92
2016-10-21T06:36:55.737Z,92
2016-10-21T06:37:29.280Z,100
2016-10-21T06:38:02.781Z,104
2016-10-21T06:38:36.253Z,108
2016-10-21T06:39:10.547Z,116
2016-10-21T06:39:44.131Z,124
2016-10-21T06:40:18.541Z,128
2016-10-21T06:40:52.650Z,128
2016-10-21T06:41:25.703Z,132
2016-10-21T06:41:59.100Z,136
2016-10-21T06:42:31.731Z,144
2016-10-21T06:43:04.570Z,152
2016-10-21T06:43:37.983Z,156
2016-10-21T06:44:10.291Z,168
2016-10-21T06:44:42.607Z,176
2016-10-21T06:45:14.924Z,196
2016-10-21T06:45:47.254Z,196
2016-10-21T06:46:21.169Z,192
2016-10-21T06:46:54.982Z,192
2016-10-21T06:47:27.310Z,200
2016-10-21T06:48:00.496Z,192
2016-10-21T06:48:32.898Z,184
2016-10-21T06:49:05.532Z,184
2016-10-21T06:49:38.110Z,184
2016-10-21T06:50:10.774Z,184
2016-10-21T06:50:44.500Z,192
2016-10-21T06:51:19.151Z,188
2016-10-21T06:51:52.131Z,180
2016-10-21T06:52:26.567Z,188
2016-10-21T06:53:00.086Z,192
2016-10-21T06:53:33.609Z,200
2016-10-21T06:54:06.441Z,208
2016-10-21T06:54:40.552Z,204
2016-10-21T06:55:14.489Z,200
2016-10-21T06:55:47.353Z,196
2016-10-21T06:56:21.682Z,200
2016-10-21T06:56:55.728Z,212
2016-10-21T06:57:30.032Z,224
2016-10-21T06:58:03.552Z,240
2016-10-21T06:58:37.118Z,244
2016-10-21T06:59:10.450Z,248
2016-10-21T06:59:43.026Z,256
2016-10-21T07:00:15.364Z,264
2016-10-21T07:00:47.986Z,272
2016-10-21T07:01:25.576Z,280
2016-10-21T07:02:00.445Z,292
2016-10-21T07:02:33.633Z,296
2016-10-21T07:03:08.201Z,296
2016-10-21T07:03:41.851Z,284
2016-10-21T07:04:18.050Z,288
2016-10-21T07:04:52.821Z,300
2016-10-21T07:05:30.143Z,328
2016-10-21T07:06:07.550Z,340
2016-10-21T07:06:46.834Z,324
2016-10-21T07:07:30.566Z,324
2016-10-21T07:08:12.051Z,328
2016-10-21T07:08:55.083Z,332
2016-10-21T07:09:37.049Z,348
2016-10-21T07:10:13.840Z,344
2016-10-21T07:10:49.056Z,328
2016-10-21T07:11:27.584Z,312
2016-10-21T07:12:08.555Z,316
2016-10-21T07:12:43.236Z,316
2016-10-21T07:13:20.308Z,332
2016-10-21T07:13:59.549Z,344
2016-10-21T07:14:39.315Z,348
2016-10-21T07:15:17.565Z,324
2016-10-21T07:15:55.608Z,296
2016-10-21T07:16:31.405Z,292
2016-10-21T07:17:10.562Z,300
2016-10-21T07:17:47.779Z,316
2016-10-21T07:19:43.280Z,312
2016-10-21T07:20:18.051Z,320
2016-10-21T07:20:53.550Z,352
2016-10-21T07:21:27.753Z,376
2016-10-21T07:22:04.051Z,412
2016-10-21T07:22:38.529Z,420
2016-10-21T07:23:16.483Z,412
2016-10-21T07:23:50.258Z,380
2016-10-21T07:24:26.073Z,428
2016-10-21T07:25:03.563Z,436
2016-10-21T07:25:38.207Z,416
2016-10-21T07:26:12.013Z,400
2016-10-21T07:26:45.724Z,384
2016-10-21T07:27:19.023Z,392
2016-10-21T07:27:53.679Z,392
2016-10-21T07:28:27.917Z,408
2016-10-21T07:29:00.387Z,396
2016-10-21T07:29:32.708Z,408
2016-10-21T07:30:05.016Z,392
2016-10-21T07:30:37.344Z,408
2016-10-21T07:31:09.705Z,416
2016-10-21T07:31:42.055Z,424
2016-10-21T07:32:14.384Z,412
2016-10-21T07:32:46.702Z,408
2016-10-21T07:33:19.023Z,420
2016-10-21T07:33:51.349Z,440
2016-10-21T07:34:23.685Z,436
2016-10-21T07:34:56.021Z,424
2016-10-21T07:35:28.335Z,432
2016-10-21T07:36:00.661Z,444
2016-10-21T07:36:32.990Z,448
2016-10-21T07:37:05.315Z,452
2016-10-21T07:37:37.644Z,468
2016-10-21T07:38:09.981Z,476
2016-10-21T07:38:42.320Z,512
2016-10-21T07:39:14.632Z,500
2016-10-21T07:39:46.936Z,468
2016-10-21T07:40:19.267Z,440
2016-10-21T07:40:51.635Z,452
2016-10-21T07:41:24.088Z,456
2016-10-21T07:41:57.462Z,464
2016-10-21T07:42:29.818Z,448
2016-10-21T07:43:02.145Z,440
2016-10-21T07:43:34.484Z,416
2016-10-21T07:44:06.832Z,424
2016-10-21T07:44:39.165Z,456
2016-10-21T07:45:11.477Z,480
2016-10-21T07:45:43.793Z,484
2016-10-21T07:46:16.120Z,516
2016-10-21T07:46:48.435Z,536
2016-10-21T07:47:20.757Z,588
2016-10-21T07:47:53.114Z,564
2016-10-21T07:48:25.454Z,560
2016-10-21T07:48:57.770Z,516
2016-10-21T07:49:30.796Z,532
2016-10-21T07:50:03.319Z,560
2016-10-21T07:50:37.562Z,584
2016-10-21T07:51:10.298Z,592
2016-10-21T07:51:43.294Z,576
2016-10-21T07:52:16.857Z,600
2016-10-21T07:52:49.263Z,600
2016-10-21T07:53:21.583Z,592
2016-10-21T07:53:54.097Z,612
2016-10-21T07:54:26.825Z,604
2016-10-21T07:55:00.540Z,580
2016-10-21T07:55:33.215Z,616
2016-10-21T07:56:05.527Z,644
2016-10-21T07:56:38.497Z,648
2016-10-21T07:57:12.533Z,660
2016-10-21T07:57:46.431Z,688
2016-10-21T07:58:18.749Z,660
2016-10-21T07:58:51.080Z,696
2016-10-21T07:59:23.442Z,788